sensor_id;sensor_type;location;lat;lon;timestamp;pressure;altitude;pressure_sealevel;temperature;humidity
65880;BME280;52661;51.364;6.054;2023-07-20T00:02:13;101025.25;;;18.17;100.00
65880;BME280;52661;51.364;6.054;2023-07-20T00:04:39;101027.69;;;18.15;100.00
65880;BME280;52661;51.364;6.054;2023-07-20T00:07:04;101019.25;;;18.06;100.00
65880;BME280;52661;51.364;6.054;2023-07-20T00:09:30;101023.69;;;18.16;100.00
65880;BME280;52661;51.364;6.054;2023-07-20T00:11:56;101018.25;;;18.00;100.00
65880;BME280;52661;51.364;6.054;2023-07-20T00:14:21;101015.06;;;18.02;100.00
65880;BME280;52661;51.364;6.054;2023-07-20T00:16:47;101017.69;;;18.22;100.00
65880;BME280;52661;51.364;6.054;2023-07-20T00:19:14;101011.94;;;18.16;100.00
65880;BME280;52661;51.364;6.054;2023-07-20T00:21:41;101018.06;;;18.07;100.00
65880;BME280;52661;51.364;6.054;2023-07-20T00:24:08;101007.31;;;18.13;100.00
65880;BME280;52661;51.364;6.054;2023-07-20T00:26:33;101015.22;;;18.11;100.00
65880;BME280;52661;51.364;6.054;2023-07-20T00:28:59;101004.81;;;18.18;100.00
65880;BME280;52661;51.364;6.054;2023-07-20T00:31:24;101007.81;;;18.24;100.00
65880;BME280;52661;51.364;6.054;2023-07-20T00:33:50;101003.53;;;18.23;100.00
65880;BME280;52661;51.364;6.054;2023-07-20T00:36:15;101000.44;;;18.21;100.00
65880;BME280;52661;51.364;6.054;2023-07-20T00:38:42;101003.47;;;18.10;100.00
65880;BME280;52661;51.364;6.054;2023-07-20T00:41:07;101003.78;;;18.12;100.00
65880;BME280;52661;51.364;6.054;2023-07-20T00:43:33;100998.47;;;18.22;100.00
65880;BME280;52661;51.364;6.054;2023-07-20T00:45:59;100993.34;;;18.07;100.00
65880;BME280;52661;51.364;6.054;2023-07-20T00:48:24;101003.47;;;17.94;100.00
65880;BME280;52661;51.364;6.054;2023-07-20T00:50:50;100998.75;;;17.95;100.00
65880;BME280;52661;51.364;6.054;2023-07-20T00:53:16;101001.97;;;17.93;100.00
65880;BME280;52661;51.364;6.054;2023-07-20T00:55:41;101000.91;;;18.03;100.00
65880;BME280;52661;51.364;6.054;2023-07-20T00:58:07;101000.25;;;17.83;100.00
65880;BME280;52661;51.364;6.054;2023-07-20T01:00:33;100998.53;;;17.73;100.00
65880;BME280;52661;51.364;6.054;2023-07-20T01:02:58;101005.13;;;17.92;100.00
65880;BME280;52661;51.364;6.054;2023-07-20T01:05:33;101002.81;;;17.90;100.00
65880;BME280;52661;51.364;6.054;2023-07-20T01:08:07;100997.94;;;17.65;100.00
65880;BME280;52661;51.364;6.054;2023-07-20T01:10:51;101000.03;;;17.61;100.00
65880;BME280;52661;51.364;6.054;2023-07-20T01:13:19;101004.50;;;17.52;100.00
65880;BME280;52661;51.364;6.054;2023-07-20T01:15:50;100995.88;;;17.53;100.00
65880;BME280;52661;51.364;6.054;2023-07-20T01:18:16;101004.59;;;17.48;100.00
65880;BME280;52661;51.364;6.054;2023-07-20T01:20:43;100997.81;;;17.37;100.00
65880;BME280;52661;51.364;6.054;2023-07-20T01:23:31;101011.88;;;17.39;100.00
65880;BME280;52661;51.364;6.054;2023-07-20T01:26:08;101000.72;;;17.30;100.00
65880;BME280;52661;51.364;6.054;2023-07-20T01:28:46;101016.94;;;17.40;100.00
65880;BME280;52661;51.364;6.054;2023-07-20T01:31:23;101011.03;;;17.42;100.00
65880;BME280;52661;51.364;6.054;2023-07-20T01:33:50;101006.22;;;17.30;100.00
65880;BME280;52661;51.364;6.054;2023-07-20T01:36:18;101005.97;;;17.24;100.00
65880;BME280;52661;51.364;6.054;2023-07-20T01:38:44;101005.25;;;17.20;100.00
65880;BME280;52661;51.364;6.054;2023-07-20T01:41:10;101005.19;;;17.23;100.00
65880;BME280;52661;51.364;6.054;2023-07-20T01:43:36;101006.81;;;17.21;100.00
65880;BME280;52661;51.364;6.054;2023-07-20T01:46:02;101008.25;;;17.09;100.00
65880;BME280;52661;51.364;6.054;2023-07-20T01:48:27;101010.56;;;17.11;100.00
65880;BME280;52661;51.364;6.054;2023-07-20T01:50:52;101006.44;;;17.19;100.00
65880;BME280;52661;51.364;6.054;2023-07-20T01:53:18;101004.47;;;17.19;100.00
65880;BME280;52661;51.364;6.054;2023-07-20T01:55:43;101008.78;;;17.20;100.00
65880;BME280;52661;51.364;6.054;2023-07-20T01:58:09;101005.00;;;17.14;100.00
65880;BME280;52661;51.364;6.054;2023-07-20T02:00:37;101008.31;;;17.06;100.00
65880;BME280;52661;51.364;6.054;2023-07-20T02:03:02;101012.19;;;17.08;100.00
65880;BME280;52661;51.364;6.054;2023-07-20T02:05:27;101000.34;;;17.11;100.00
65880;BME280;52661;51.364;6.054;2023-07-20T02:07:53;101003.00;;;17.15;100.00
65880;BME280;52661;51.364;6.054;2023-07-20T02:10:18;101003.78;;;17.15;100.00
65880;BME280;52661;51.364;6.054;2023-07-20T02:12:43;100997.59;;;17.11;100.00
65880;BME280;52661;51.364;6.054;2023-07-20T02:15:10;100991.81;;;16.90;100.00
65880;BME280;52661;51.364;6.054;2023-07-20T02:17:35;101003.84;;;16.96;100.00
65880;BME280;52661;51.364;6.054;2023-07-20T02:20:00;101011.72;;;16.94;100.00
65880;BME280;52661;51.364;6.054;2023-07-20T02:22:26;101007.44;;;16.93;100.00
65880;BME280;52661;51.364;6.054;2023-07-20T02:24:51;101003.00;;;16.99;100.00
65880;BME280;52661;51.364;6.054;2023-07-20T02:27:16;101000.94;;;17.03;100.00
65880;BME280;52661;51.364;6.054;2023-07-20T02:29:42;101010.78;;;17.00;100.00
65880;BME280;52661;51.364;6.054;2023-07-20T02:32:08;101012.50;;;16.94;100.00
65880;BME280;52661;51.364;6.054;2023-07-20T02:34:35;101010.59;;;16.91;100.00
65880;BME280;52661;51.364;6.054;2023-07-20T02:37:00;101013.34;;;16.91;100.00
65880;BME280;52661;51.364;6.054;2023-07-20T02:39:27;101013.75;;;16.90;100.00
65880;BME280;52661;51.364;6.054;2023-07-20T02:41:53;101018.91;;;16.88;100.00
65880;BME280;52661;51.364;6.054;2023-07-20T02:44:18;101018.97;;;16.84;100.00
65880;BME280;52661;51.364;6.054;2023-07-20T02:46:43;101021.34;;;16.82;100.00
65880;BME280;52661;51.364;6.054;2023-07-20T02:49:09;101025.94;;;16.89;100.00
65880;BME280;52661;51.364;6.054;2023-07-20T02:51:34;101033.22;;;16.95;100.00
65880;BME280;52661;51.364;6.054;2023-07-20T02:54:00;101028.88;;;16.98;100.00
65880;BME280;52661;51.364;6.054;2023-07-20T02:56:26;101025.03;;;17.11;100.00
65880;BME280;52661;51.364;6.054;2023-07-20T02:58:52;101030.53;;;17.11;100.00
65880;BME280;52661;51.364;6.054;2023-07-20T03:01:17;101034.03;;;17.12;100.00
65880;BME280;52661;51.364;6.054;2023-07-20T03:03:43;101033.56;;;16.97;100.00
65880;BME280;52661;51.364;6.054;2023-07-20T03:06:14;101041.16;;;16.90;100.00
65880;BME280;52661;51.364;6.054;2023-07-20T03:08:41;101044.75;;;16.87;100.00
65880;BME280;52661;51.364;6.054;2023-07-20T03:11:07;101051.44;;;16.86;100.00
65880;BME280;52661;51.364;6.054;2023-07-20T03:13:33;101040.34;;;16.73;100.00
65880;BME280;52661;51.364;6.054;2023-07-20T03:15:58;101046.75;;;16.66;100.00
65880;BME280;52661;51.364;6.054;2023-07-20T03:18:23;101047.09;;;16.68;100.00
65880;BME280;52661;51.364;6.054;2023-07-20T03:20:49;101054.84;;;16.73;100.00
65880;BME280;52661;51.364;6.054;2023-07-20T03:23:14;101057.00;;;16.82;100.00
65880;BME280;52661;51.364;6.054;2023-07-20T03:25:40;101055.94;;;16.76;100.00
65880;BME280;52661;51.364;6.054;2023-07-20T03:28:06;101057.00;;;16.82;100.00
65880;BME280;52661;51.364;6.054;2023-07-20T03:30:31;101060.38;;;16.90;100.00
65880;BME280;52661;51.364;6.054;2023-07-20T03:32:57;101059.72;;;16.82;100.00
65880;BME280;52661;51.364;6.054;2023-07-20T03:35:22;101057.75;;;16.83;100.00
65880;BME280;52661;51.364;6.054;2023-07-20T03:37:48;101051.81;;;16.88;100.00
65880;BME280;52661;51.364;6.054;2023-07-20T03:40:14;101055.72;;;16.87;100.00
65880;BME280;52661;51.364;6.054;2023-07-20T03:42:40;101070.38;;;17.00;100.00
65880;BME280;52661;51.364;6.054;2023-07-20T03:45:06;101064.41;;;16.85;100.00
65880;BME280;52661;51.364;6.054;2023-07-20T03:47:31;101071.84;;;16.85;100.00
65880;BME280;52661;51.364;6.054;2023-07-20T03:49:57;101068.19;;;16.91;100.00
65880;BME280;52661;51.364;6.054;2023-07-20T03:52:22;101068.41;;;16.81;100.00
65880;BME280;52661;51.364;6.054;2023-07-20T03:54:49;101064.09;;;16.80;100.00
65880;BME280;52661;51.364;6.054;2023-07-20T03:57:16;101071.13;;;16.81;100.00
65880;BME280;52661;51.364;6.054;2023-07-20T03:59:45;101065.59;;;16.84;100.00
65880;BME280;52661;51.364;6.054;2023-07-20T04:02:10;101076.97;;;16.83;100.00
65880;BME280;52661;51.364;6.054;2023-07-20T04:04:35;101070.91;;;16.71;100.00
65880;BME280;52661;51.364;6.054;2023-07-20T04:07:01;101075.56;;;16.75;100.00
65880;BME280;52661;51.364;6.054;2023-07-20T04:09:26;101078.84;;;16.86;100.00
65880;BME280;52661;51.364;6.054;2023-07-20T04:11:52;101077.72;;;16.83;100.00
65880;BME280;52661;51.364;6.054;2023-07-20T04:14:17;101081.81;;;16.75;100.00
65880;BME280;52661;51.364;6.054;2023-07-20T04:16:42;101082.16;;;16.77;100.00
65880;BME280;52661;51.364;6.054;2023-07-20T04:19:08;101080.28;;;16.74;100.00
65880;BME280;52661;51.364;6.054;2023-07-20T04:21:40;101082.25;;;16.73;100.00
65880;BME280;52661;51.364;6.054;2023-07-20T04:24:06;101091.94;;;16.78;100.00
65880;BME280;52661;51.364;6.054;2023-07-20T04:26:31;101091.03;;;16.85;100.00
65880;BME280;52661;51.364;6.054;2023-07-20T04:28:57;101090.81;;;16.76;100.00
65880;BME280;52661;51.364;6.054;2023-07-20T04:31:24;101092.09;;;16.71;100.00
65880;BME280;52661;51.364;6.054;2023-07-20T04:33:49;101092.75;;;16.75;100.00
65880;BME280;52661;51.364;6.054;2023-07-20T04:36:15;101090.47;;;16.73;100.00
65880;BME280;52661;51.364;6.054;2023-07-20T04:38:45;101101.28;;;16.81;100.00
65880;BME280;52661;51.364;6.054;2023-07-20T04:41:10;101083.50;;;16.89;100.00
65880;BME280;52661;51.364;6.054;2023-07-20T04:43:41;101089.25;;;16.94;100.00
65880;BME280;52661;51.364;6.054;2023-07-20T04:46:06;101091.09;;;17.01;100.00
65880;BME280;52661;51.364;6.054;2023-07-20T04:48:31;101095.78;;;17.00;100.00
65880;BME280;52661;51.364;6.054;2023-07-20T04:50:57;101100.22;;;16.94;100.00
65880;BME280;52661;51.364;6.054;2023-07-20T04:53:22;101103.13;;;16.87;100.00
65880;BME280;52661;51.364;6.054;2023-07-20T04:55:49;101101.41;;;16.93;100.00
65880;BME280;52661;51.364;6.054;2023-07-20T04:58:20;101106.91;;;16.93;100.00
65880;BME280;52661;51.364;6.054;2023-07-20T05:00:50;101099.47;;;16.94;100.00
65880;BME280;52661;51.364;6.054;2023-07-20T05:03:16;101095.44;;;16.98;100.00
65880;BME280;52661;51.364;6.054;2023-07-20T05:05:41;101096.16;;;17.02;100.00
65880;BME280;52661;51.364;6.054;2023-07-20T05:08:07;101095.38;;;17.02;100.00
65880;BME280;52661;51.364;6.054;2023-07-20T05:10:32;101110.13;;;17.08;100.00
65880;BME280;52661;51.364;6.054;2023-07-20T05:12:58;101099.47;;;17.13;100.00
65880;BME280;52661;51.364;6.054;2023-07-20T05:15:23;101096.34;;;17.11;100.00
65880;BME280;52661;51.364;6.054;2023-07-20T05:17:49;101103.75;;;17.14;100.00
65880;BME280;52661;51.364;6.054;2023-07-20T05:20:14;101106.28;;;17.05;100.00
65880;BME280;52661;51.364;6.054;2023-07-20T05:22:40;101112.41;;;17.13;100.00
65880;BME280;52661;51.364;6.054;2023-07-20T05:25:09;101112.53;;;17.06;100.00
65880;BME280;52661;51.364;6.054;2023-07-20T05:27:37;101124.63;;;17.08;100.00
65880;BME280;52661;51.364;6.054;2023-07-20T05:30:03;101123.59;;;17.02;100.00
65880;BME280;52661;51.364;6.054;2023-07-20T05:32:28;101123.50;;;17.06;100.00
65880;BME280;52661;51.364;6.054;2023-07-20T05:34:54;101116.31;;;17.12;100.00
65880;BME280;52661;51.364;6.054;2023-07-20T05:37:20;101119.69;;;17.19;100.00
65880;BME280;52661;51.364;6.054;2023-07-20T05:39:45;101120.00;;;17.25;100.00
65880;BME280;52661;51.364;6.054;2023-07-20T05:42:10;101122.91;;;17.34;100.00
65880;BME280;52661;51.364;6.054;2023-07-20T05:44:36;101118.28;;;17.31;100.00
65880;BME280;52661;51.364;6.054;2023-07-20T05:47:01;101121.38;;;17.33;100.00
65880;BME280;52661;51.364;6.054;2023-07-20T05:49:27;101113.50;;;17.15;100.00
65880;BME280;52661;51.364;6.054;2023-07-20T05:51:54;101119.84;;;17.12;100.00
65880;BME280;52661;51.364;6.054;2023-07-20T05:54:20;101108.38;;;16.98;100.00
65880;BME280;52661;51.364;6.054;2023-07-20T05:56:45;101114.84;;;16.88;100.00
65880;BME280;52661;51.364;6.054;2023-07-20T05:59:11;101107.56;;;16.81;100.00
65880;BME280;52661;51.364;6.054;2023-07-20T06:01:36;101114.94;;;16.84;100.00
65880;BME280;52661;51.364;6.054;2023-07-20T06:04:02;101110.97;;;16.65;100.00
65880;BME280;52661;51.364;6.054;2023-07-20T06:06:28;101123.28;;;16.77;100.00
65880;BME280;52661;51.364;6.054;2023-07-20T06:08:54;101122.84;;;16.79;100.00
65880;BME280;52661;51.364;6.054;2023-07-20T06:11:20;101128.63;;;16.84;100.00
65880;BME280;52661;51.364;6.054;2023-07-20T06:13:45;101130.06;;;16.92;100.00
65880;BME280;52661;51.364;6.054;2023-07-20T06:16:10;101130.88;;;17.09;100.00
65880;BME280;52661;51.364;6.054;2023-07-20T06:18:36;101140.88;;;17.19;100.00
65880;BME280;52661;51.364;6.054;2023-07-20T06:21:01;101142.97;;;17.31;100.00
65880;BME280;52661;51.364;6.054;2023-07-20T06:23:27;101146.84;;;17.34;100.00
65880;BME280;52661;51.364;6.054;2023-07-20T06:25:52;101144.09;;;17.34;100.00
65880;BME280;52661;51.364;6.054;2023-07-20T06:28:18;101149.25;;;17.32;100.00
65880;BME280;52661;51.364;6.054;2023-07-20T06:30:43;101152.31;;;17.34;100.00
65880;BME280;52661;51.364;6.054;2023-07-20T06:33:09;101156.91;;;17.20;100.00
65880;BME280;52661;51.364;6.054;2023-07-20T06:35:34;101156.13;;;17.20;100.00
65880;BME280;52661;51.364;6.054;2023-07-20T06:38:01;101153.31;;;17.04;100.00
65880;BME280;52661;51.364;6.054;2023-07-20T06:40:26;101162.13;;;16.95;100.00
65880;BME280;52661;51.364;6.054;2023-07-20T06:42:52;101153.69;;;17.06;100.00
65880;BME280;52661;51.364;6.054;2023-07-20T06:45:17;101156.19;;;16.97;100.00
65880;BME280;52661;51.364;6.054;2023-07-20T06:47:42;101158.31;;;17.09;100.00
65880;BME280;52661;51.364;6.054;2023-07-20T06:50:08;101158.19;;;16.96;100.00
65880;BME280;52661;51.364;6.054;2023-07-20T06:52:34;101152.78;;;16.93;100.00
65880;BME280;52661;51.364;6.054;2023-07-20T06:55:00;101162.31;;;16.85;100.00
65880;BME280;52661;51.364;6.054;2023-07-20T06:57:25;101157.31;;;16.80;100.00
65880;BME280;52661;51.364;6.054;2023-07-20T06:59:51;101162.31;;;16.85;100.00
65880;BME280;52661;51.364;6.054;2023-07-20T07:02:16;101168.84;;;16.91;100.00
65880;BME280;52661;51.364;6.054;2023-07-20T07:04:42;101168.31;;;16.99;100.00
65880;BME280;52661;51.364;6.054;2023-07-20T07:07:08;101171.97;;;17.12;100.00
65880;BME280;52661;51.364;6.054;2023-07-20T07:09:34;101174.00;;;17.08;100.00
65880;BME280;52661;51.364;6.054;2023-07-20T07:11:59;101174.69;;;17.12;100.00
65880;BME280;52661;51.364;6.054;2023-07-20T07:14:25;101178.72;;;17.28;100.00
65880;BME280;52661;51.364;6.054;2023-07-20T07:16:50;101173.78;;;17.39;100.00
65880;BME280;52661;51.364;6.054;2023-07-20T07:19:16;101172.72;;;17.52;100.00
65880;BME280;52661;51.364;6.054;2023-07-20T07:21:41;101176.81;;;17.64;100.00
65880;BME280;52661;51.364;6.054;2023-07-20T07:24:07;101176.91;;;17.77;100.00
65880;BME280;52661;51.364;6.054;2023-07-20T07:26:33;101173.28;;;17.63;100.00
65880;BME280;52661;51.364;6.054;2023-07-20T07:28:58;101186.44;;;17.72;100.00
65880;BME280;52661;51.364;6.054;2023-07-20T07:31:29;101176.88;;;17.96;100.00
65880;BME280;52661;51.364;6.054;2023-07-20T07:33:54;101178.75;;;17.99;100.00
65880;BME280;52661;51.364;6.054;2023-07-20T07:36:20;101175.66;;;17.97;100.00
65880;BME280;52661;51.364;6.054;2023-07-20T07:38:45;101179.41;;;17.87;100.00
65880;BME280;52661;51.364;6.054;2023-07-20T07:41:11;101179.34;;;18.07;100.00
65880;BME280;52661;51.364;6.054;2023-07-20T07:43:36;101184.88;;;18.23;100.00
65880;BME280;52661;51.364;6.054;2023-07-20T07:46:03;101184.44;;;18.08;100.00
65880;BME280;52661;51.364;6.054;2023-07-20T07:48:29;101189.50;;;18.10;100.00
65880;BME280;52661;51.364;6.054;2023-07-20T07:50:54;101194.28;;;18.06;100.00
65880;BME280;52661;51.364;6.054;2023-07-20T07:53:20;101189.59;;;18.23;100.00
65880;BME280;52661;51.364;6.054;2023-07-20T07:55:47;101194.47;;;18.15;100.00
65880;BME280;52661;51.364;6.054;2023-07-20T07:58:13;101206.25;;;18.15;100.00
65880;BME280;52661;51.364;6.054;2023-07-20T08:00:39;101207.44;;;18.31;100.00
65880;BME280;52661;51.364;6.054;2023-07-20T08:03:06;101207.78;;;18.49;100.00
65880;BME280;52661;51.364;6.054;2023-07-20T08:05:31;101206.06;;;18.71;100.00
65880;BME280;52661;51.364;6.054;2023-07-20T08:07:57;101211.47;;;18.42;100.00
65880;BME280;52661;51.364;6.054;2023-07-20T08:10:22;101220.59;;;18.23;100.00
65880;BME280;52661;51.364;6.054;2023-07-20T08:12:48;101207.50;;;17.95;100.00
65880;BME280;52661;51.364;6.054;2023-07-20T08:15:13;101211.22;;;18.04;100.00
65880;BME280;52661;51.364;6.054;2023-07-20T08:17:40;101211.09;;;17.92;100.00
65880;BME280;52661;51.364;6.054;2023-07-20T08:20:06;101208.34;;;17.92;100.00
65880;BME280;52661;51.364;6.054;2023-07-20T08:22:31;101208.66;;;18.30;100.00
65880;BME280;52661;51.364;6.054;2023-07-20T08:24:57;101211.38;;;18.46;100.00
65880;BME280;52661;51.364;6.054;2023-07-20T08:27:22;101210.97;;;18.63;100.00
65880;BME280;52661;51.364;6.054;2023-07-20T08:29:48;101223.44;;;18.84;100.00
65880;BME280;52661;51.364;6.054;2023-07-20T08:32:13;101213.75;;;19.08;100.00
65880;BME280;52661;51.364;6.054;2023-07-20T08:34:39;101211.19;;;19.01;100.00
65880;BME280;52661;51.364;6.054;2023-07-20T08:37:05;101208.66;;;19.07;100.00
65880;BME280;52661;51.364;6.054;2023-07-20T08:39:30;101204.81;;;19.04;100.00
65880;BME280;52661;51.364;6.054;2023-07-20T08:41:57;101212.09;;;19.11;100.00
65880;BME280;52661;51.364;6.054;2023-07-20T08:44:25;101207.34;;;19.11;100.00
65880;BME280;52661;51.364;6.054;2023-07-20T08:46:52;101209.63;;;19.00;100.00
65880;BME280;52661;51.364;6.054;2023-07-20T08:49:18;101209.13;;;18.89;100.00
65880;BME280;52661;51.364;6.054;2023-07-20T08:51:45;101216.59;;;18.89;100.00
65880;BME280;52661;51.364;6.054;2023-07-20T08:54:12;101205.47;;;18.80;100.00
65880;BME280;52661;51.364;6.054;2023-07-20T08:56:39;101209.78;;;18.81;100.00
65880;BME280;52661;51.364;6.054;2023-07-20T08:59:06;101212.34;;;18.88;100.00
65880;BME280;52661;51.364;6.054;2023-07-20T09:01:34;101211.09;;;19.05;100.00
65880;BME280;52661;51.364;6.054;2023-07-20T09:04:01;101203.22;;;19.20;100.00
65880;BME280;52661;51.364;6.054;2023-07-20T09:06:27;101203.22;;;19.32;100.00
65880;BME280;52661;51.364;6.054;2023-07-20T09:08:52;101208.41;;;19.30;100.00
65880;BME280;52661;51.364;6.054;2023-07-20T09:11:17;101205.56;;;19.34;100.00
65880;BME280;52661;51.364;6.054;2023-07-20T09:13:43;101204.47;;;19.31;100.00
65880;BME280;52661;51.364;6.054;2023-07-20T09:16:09;101195.31;;;19.63;100.00
65880;BME280;52661;51.364;6.054;2023-07-20T09:18:38;101201.59;;;19.63;100.00
65880;BME280;52661;51.364;6.054;2023-07-20T09:21:06;101200.78;;;19.50;100.00
65880;BME280;52661;51.364;6.054;2023-07-20T09:23:37;101202.97;;;19.43;100.00
65880;BME280;52661;51.364;6.054;2023-07-20T09:26:14;101210.16;;;19.53;100.00
65880;BME280;52661;51.364;6.054;2023-07-20T09:28:48;101205.66;;;19.97;100.00
65880;BME280;52661;51.364;6.054;2023-07-20T09:31:18;101205.78;;;19.93;97.46
65880;BME280;52661;51.364;6.054;2023-07-20T09:33:44;101200.91;;;19.72;96.13
65880;BME280;52661;51.364;6.054;2023-07-20T09:36:10;101200.84;;;19.88;100.00
65880;BME280;52661;51.364;6.054;2023-07-20T09:38:41;101200.03;;;20.00;100.00
65880;BME280;52661;51.364;6.054;2023-07-20T09:41:07;101199.19;;;20.03;99.20
65880;BME280;52661;51.364;6.054;2023-07-20T09:43:34;101195.44;;;19.85;99.71
65880;BME280;52661;51.364;6.054;2023-07-20T09:46:00;101191.78;;;19.88;98.67
65880;BME280;52661;51.364;6.054;2023-07-20T09:48:26;101191.78;;;20.00;100.00
65880;BME280;52661;51.364;6.054;2023-07-20T09:50:53;101192.78;;;19.94;99.86
65880;BME280;52661;51.364;6.054;2023-07-20T09:53:19;101191.56;;;19.70;97.53
65880;BME280;52661;51.364;6.054;2023-07-20T09:55:48;101189.44;;;19.48;99.08
65880;BME280;52661;51.364;6.054;2023-07-20T09:58:14;101194.34;;;19.41;98.65
65880;BME280;52661;51.364;6.054;2023-07-20T10:00:42;101192.47;;;19.38;97.25
65880;BME280;52661;51.364;6.054;2023-07-20T10:03:14;101189.47;;;19.32;97.58
65880;BME280;52661;51.364;6.054;2023-07-20T10:05:43;101193.44;;;19.31;96.89
65880;BME280;52661;51.364;6.054;2023-07-20T10:08:12;101188.78;;;19.44;97.97
65880;BME280;52661;51.364;6.054;2023-07-20T10:10:40;101184.75;;;19.74;100.00
65880;BME280;52661;51.364;6.054;2023-07-20T10:13:10;101197.31;;;19.88;98.62
65880;BME280;52661;51.364;6.054;2023-07-20T10:15:46;101202.38;;;19.89;97.11
65880;BME280;52661;51.364;6.054;2023-07-20T10:18:18;101191.34;;;19.77;97.20
65880;BME280;52661;51.364;6.054;2023-07-20T10:20:47;101191.38;;;19.89;97.22
65880;BME280;52661;51.364;6.054;2023-07-20T10:23:13;101192.09;;;20.15;97.48
65880;BME280;52661;51.364;6.054;2023-07-20T10:25:39;101186.28;;;20.26;98.17
65880;BME280;52661;51.364;6.054;2023-07-20T10:28:07;101187.03;;;20.39;94.72
65880;BME280;52661;51.364;6.054;2023-07-20T10:30:36;101184.88;;;20.68;96.10
65880;BME280;52661;51.364;6.054;2023-07-20T10:33:05;101187.16;;;21.04;94.09
65880;BME280;52661;51.364;6.054;2023-07-20T10:35:50;101179.00;;;21.00;95.08
65880;BME280;52661;51.364;6.054;2023-07-20T10:38:16;101175.03;;;20.80;93.27
65880;BME280;52661;51.364;6.054;2023-07-20T10:40:41;101174.75;;;20.65;92.99
65880;BME280;52661;51.364;6.054;2023-07-20T10:43:08;101177.31;;;20.81;97.19
65880;BME280;52661;51.364;6.054;2023-07-20T10:48:06;101163.66;;;20.99;92.57
65880;BME280;52661;51.364;6.054;2023-07-20T10:50:33;101164.19;;;21.07;90.40
65880;BME280;52661;51.364;6.054;2023-07-20T10:53:13;101155.88;;;21.20;87.81
65880;BME280;52661;51.364;6.054;2023-07-20T10:55:40;101158.47;;;21.01;84.60
65880;BME280;52661;51.364;6.054;2023-07-20T10:58:08;101154.09;;;20.91;84.59
65880;BME280;52661;51.364;6.054;2023-07-20T11:00:35;101152.22;;;20.88;85.16
65880;BME280;52661;51.364;6.054;2023-07-20T11:03:00;101151.19;;;20.95;87.20
65880;BME280;52661;51.364;6.054;2023-07-20T11:05:33;101160.97;;;21.08;88.78
65880;BME280;52661;51.364;6.054;2023-07-20T11:08:06;101149.28;;;21.04;88.31
65880;BME280;52661;51.364;6.054;2023-07-20T11:10:34;101150.94;;;21.02;89.92
65880;BME280;52661;51.364;6.054;2023-07-20T11:15:48;101153.00;;;20.89;88.89
65880;BME280;52661;51.364;6.054;2023-07-20T11:18:20;101149.94;;;20.87;88.26
65880;BME280;52661;51.364;6.054;2023-07-20T11:20:50;101143.78;;;20.83;89.08
65880;BME280;52661;51.364;6.054;2023-07-20T11:23:15;101148.00;;;20.75;84.53
65880;BME280;52661;51.364;6.054;2023-07-20T11:25:41;101146.81;;;20.63;85.65
65880;BME280;52661;51.364;6.054;2023-07-20T11:28:08;101139.81;;;20.49;85.84
65880;BME280;52661;51.364;6.054;2023-07-20T11:30:39;101139.59;;;20.44;86.31
65880;BME280;52661;51.364;6.054;2023-07-20T11:33:05;101141.25;;;20.41;89.87
65880;BME280;52661;51.364;6.054;2023-07-20T11:35:46;101138.63;;;20.38;90.53
65880;BME280;52661;51.364;6.054;2023-07-20T11:38:13;101140.19;;;20.39;90.71
65880;BME280;52661;51.364;6.054;2023-07-20T11:40:45;101134.84;;;20.44;92.68
65880;BME280;52661;51.364;6.054;2023-07-20T11:43:14;101128.53;;;20.56;93.64
65880;BME280;52661;51.364;6.054;2023-07-20T11:45:39;101130.22;;;20.54;90.69
65880;BME280;52661;51.364;6.054;2023-07-20T11:48:05;101133.22;;;20.47;88.61
65880;BME280;52661;51.364;6.054;2023-07-20T11:50:31;101134.97;;;20.41;87.19
65880;BME280;52661;51.364;6.054;2023-07-20T11:52:57;101131.66;;;20.46;87.85
65880;BME280;52661;51.364;6.054;2023-07-20T11:55:22;101124.28;;;20.43;87.87
65880;BME280;52661;51.364;6.054;2023-07-20T11:58:20;101125.72;;;20.47;87.80
65880;BME280;52661;51.364;6.054;2023-07-20T12:00:47;101129.34;;;20.44;87.12
65880;BME280;52661;51.364;6.054;2023-07-20T12:03:13;101129.81;;;20.43;88.25
65880;BME280;52661;51.364;6.054;2023-07-20T12:05:39;101116.44;;;20.41;91.33
65880;BME280;52661;51.364;6.054;2023-07-20T12:08:05;101119.72;;;20.49;92.08
65880;BME280;52661;51.364;6.054;2023-07-20T12:10:30;101116.72;;;20.56;90.57
65880;BME280;52661;51.364;6.054;2023-07-20T12:13:02;101124.88;;;20.59;86.96
65880;BME280;52661;51.364;6.054;2023-07-20T12:15:32;101113.84;;;20.59;85.91
65880;BME280;52661;51.364;6.054;2023-07-20T12:17:59;101115.91;;;20.68;87.55
65880;BME280;52661;51.364;6.054;2023-07-20T12:23:01;101119.38;;;20.81;88.14
65880;BME280;52661;51.364;6.054;2023-07-20T12:25:37;101123.09;;;20.66;86.33
65880;BME280;52661;51.364;6.054;2023-07-20T12:28:11;101118.34;;;20.66;86.58
65880;BME280;52661;51.364;6.054;2023-07-20T12:30:38;101119.56;;;20.65;85.95
65880;BME280;52661;51.364;6.054;2023-07-20T12:33:04;101111.09;;;20.81;89.98
65880;BME280;52661;51.364;6.054;2023-07-20T12:35:31;101115.28;;;20.86;84.81
65880;BME280;52661;51.364;6.054;2023-07-20T12:37:56;101118.22;;;20.91;85.34
65880;BME280;52661;51.364;6.054;2023-07-20T12:40:22;101115.06;;;21.02;85.79
65880;BME280;52661;51.364;6.054;2023-07-20T12:42:47;101116.03;;;21.08;82.49
65880;BME280;52661;51.364;6.054;2023-07-20T12:45:14;101117.69;;;21.05;84.56
65880;BME280;52661;51.364;6.054;2023-07-20T12:47:39;101108.41;;;20.90;82.52
65880;BME280;52661;51.364;6.054;2023-07-20T12:50:06;101110.28;;;20.93;85.87